Terminal Aerodrome Forecast
Issued by NWS

Current Version | Previous Version | Graphics & Text | Print | Product List | Glossary On
Versions: 1 2 3 4 5 6 7 8 9 10 11 12 13 14 15 16 17 18 19 20
000
FTUS41 KILN 011400 AAA
TAFLUK
TAF AMD
KLUK 011404Z 0114/0212 04005KT 1 1/2SM BR OVC002
     FM011600 08004KT P6SM SCT250
     FM020000 11003KT P6SM SKC
     FM020700 00000KT 3SM BR SKC=

USA.gov is the U.S. government's official web portal to all federal, state and local government web resources and services.